Time;durP1;ratioP1;P1;durP2;ratioP2;P2;SDS_P1;SDS_P2;PMS_P1;PMS_P2;Temp;Humidity;BMP_temperature;BMP_pressure;BME280_temperature;BME280_humidity;BME280_pressure;Samples;Min_cycle;Max_cycle;Signal;HPM_P1;HPM_P2
2022/04/18 00:00:36;;;;;;;1.60;1.50;;;10.60;40.40;;;;;;939296;149;27445;-74
2022/04/18 00:03:04;;;;;;;1.70;1.60;;;10.50;40.50;;;;;;941070;151;27443;-74
2022/04/18 00:05:29;;;;;;;2.00;1.73;;;10.40;40.70;;;;;;941043;150;28324;-74
2022/04/18 00:07:55;;;;;;;1.50;1.40;;;10.30;40.80;;;;;;943055;150;27394;-74
2022/04/18 00:10:22;;;;;;;1.63;1.53;;;10.20;40.90;;;;;;942939;149;27369;-74
2022/04/18 00:12:48;;;;;;;1.60;1.50;;;10.00;41.10;;;;;;943515;150;28470;-74
2022/04/18 00:15:15;;;;;;;1.60;1.50;;;9.90;41.30;;;;;;941670;150;27421;-74
2022/04/18 00:17:43;;;;;;;1.47;1.37;;;9.80;41.40;;;;;;942516;149;27381;-74
2022/04/18 00:20:09;;;;;;;2.50;1.53;;;9.70;41.70;;;;;;942285;150;27361;-74
2022/04/18 00:22:35;;;;;;;2.00;1.77;;;9.60;41.80;;;;;;950863;146;27420;-74
2022/04/18 00:25:02;;;;;;;1.60;1.50;;;9.50;42.00;;;;;;934993;149;27384;-74
2022/04/18 00:27:28;;;;;;;2.53;1.50;;;9.40;42.30;;;;;;941445;151;27381;-74
2022/04/18 00:29:55;;;;;;;1.37;1.17;;;9.30;42.50;;;;;;939683;151;27408;-74
2022/04/18 00:32:21;;;;;;;1.37;1.27;;;9.20;42.50;;;;;;941487;150;27316;-74
2022/04/18 00:34:48;;;;;;;1.30;1.20;;;9.10;42.60;;;;;;940796;151;27415;-74
2022/04/18 00:37:15;;;;;;;1.80;1.33;;;9.00;42.70;;;;;;934289;149;27446;-74
2022/04/18 00:39:41;;;;;;;4.33;1.93;;;9.00;42.90;;;;;;933468;149;27428;-74
2022/04/18 00:42:08;;;;;;;1.87;1.77;;;8.90;43.10;;;;;;933644;149;27301;-74
2022/04/18 00:44:34;;;;;;;1.60;1.50;;;8.80;43.10;;;;;;941874;148;27374;-74
2022/04/18 00:47:01;;;;;;;1.43;1.33;;;8.80;43.30;;;;;;942618;148;27410;-74
2022/04/18 00:49:28;;;;;;;1.97;1.83;;;8.80;43.50;;;;;;940899;148;27390;-74
2022/04/18 00:51:54;;;;;;;1.50;1.40;;;8.70;43.60;;;;;;943076;148;27365;-73
2022/04/18 00:54:21;;;;;;;1.73;1.63;;;8.70;43.60;;;;;;941025;148;27328;-74
2022/04/18 00:56:47;;;;;;;1.70;1.60;;;8.70;43.70;;;;;;948053;146;27435;-74
2022/04/18 00:59:14;;;;;;;1.63;1.53;;;8.70;44.00;;;;;;939263;149;27341;-74
2022/04/18 01:01:40;;;;;;;1.57;1.47;;;8.70;44.10;;;;;;948887;146;27975;-74
2022/04/18 01:04:07;;;;;;;2.00;1.80;;;8.60;43.90;;;;;;930750;150;27956;-74
2022/04/18 01:06:34;;;;;;;1.87;1.50;;;8.60;44.00;;;;;;936608;149;27398;-74
2022/04/18 01:09:00;;;;;;;1.33;1.23;;;8.60;44.10;;;;;;937265;151;27310;-74
2022/04/18 01:11:27;;;;;;;1.73;1.47;;;8.60;44.30;;;;;;937882;150;27339;-74
2022/04/18 01:13:53;;;;;;;1.60;1.50;;;8.60;44.40;;;;;;938394;150;27324;-74
2022/04/18 01:16:20;;;;;;;1.70;1.60;;;8.50;44.40;;;;;;940274;150;27840;-74
2022/04/18 01:18:48;;;;;;;1.70;1.57;;;8.50;44.50;;;;;;940118;150;27297;-74
2022/04/18 01:21:13;;;;;;;4.80;1.50;;;8.50;44.60;;;;;;937831;151;28036;-74
2022/04/18 01:23:40;;;;;;;1.33;1.23;;;8.50;44.70;;;;;;929581;151;27343;-74
2022/04/18 01:29:05;;;;;;;1.50;1.40;;;8.40;45.00;;;;;;884011;160;27391;-74
2022/04/18 01:31:33;;;;;;;1.60;1.50;;;8.30;45.00;;;;;;863872;161;27597;-73
2022/04/18 01:33:59;;;;;;;2.27;1.20;;;8.30;44.70;;;;;;901887;148;27488;-73
2022/04/18 01:36:26;;;;;;;2.13;1.63;;;8.20;45.30;;;;;;934292;148;27291;-74
2022/04/18 01:38:53;;;;;;;1.87;1.50;;;8.10;45.60;;;;;;931623;148;27457;-73
2022/04/18 01:41:19;;;;;;;1.30;1.20;;;8.00;45.70;;;;;;929028;150;27471;-73
2022/04/18 01:43:46;;;;;;;1.70;1.60;;;8.00;45.80;;;;;;927848;150;27400;-73
2022/04/18 01:46:12;;;;;;;1.97;1.50;;;7.90;45.80;;;;;;928032;150;27478;-73
2022/04/18 01:48:39;;;;;;;2.07;1.60;;;7.90;46.10;;;;;;927309;150;27324;-73
2022/04/18 01:51:06;;;;;;;2.00;1.90;;;7.80;46.20;;;;;;929129;150;27337;-73
2022/04/18 01:53:32;;;;;;;1.90;1.50;;;7.80;46.40;;;;;;928033;150;27295;-73
2022/04/18 01:55:59;;;;;;;1.90;1.60;;;7.70;46.60;;;;;;927241;150;27311;-73
2022/04/18 01:58:25;;;;;;;1.60;1.50;;;7.70;46.90;;;;;;927256;150;27355;-73
2022/04/18 02:00:52;;;;;;;1.60;1.50;;;7.60;47.00;;;;;;926755;150;27484;-73
2022/04/18 02:03:18;;;;;;;1.80;1.70;;;7.60;47.20;;;;;;927851;150;27394;-73
2022/04/18 02:05:47;;;;;;;1.40;1.30;;;7.50;47.20;;;;;;928878;150;27359;-73
2022/04/18 02:08:12;;;;;;;2.00;1.73;;;7.50;47.30;;;;;;928108;150;27465;-73
2022/04/18 02:10:38;;;;;;;1.90;1.63;;;7.50;47.30;;;;;;929163;150;27367;-73
2022/04/18 02:13:05;;;;;;;1.27;1.17;;;7.50;47.30;;;;;;928656;150;27487;-73
2022/04/18 02:15:31;;;;;;;1.63;1.50;;;7.40;47.30;;;;;;926921;150;27324;-73
2022/04/18 02:17:58;;;;;;;2.37;1.40;;;7.40;47.40;;;;;;928025;150;27273;-73
2022/04/18 02:20:25;;;;;;;1.60;1.50;;;7.40;47.50;;;;;;927539;150;27440;-74
2022/04/18 02:22:51;;;;;;;1.50;1.40;;;7.40;47.70;;;;;;927348;150;27410;-74
2022/04/18 02:25:19;;;;;;;2.33;1.33;;;7.40;48.00;;;;;;918541;154;27392;-74
2022/04/18 02:27:44;;;;;;;2.43;1.47;;;7.30;48.00;;;;;;919328;154;27718;-74
2022/04/18 02:30:16;;;;;;;1.40;1.30;;;7.30;48.00;;;;;;919485;154;27453;-73
2022/04/18 02:32:52;;;;;;;1.47;1.37;;;7.20;48.00;;;;;;918661;154;27380;-76
2022/04/18 02:35:16;;;;;;;1.97;1.53;;;7.20;48.00;;;;;;920574;153;27505;-76
2022/04/18 02:37:42;;;;;;;1.50;1.40;;;7.10;48.10;;;;;;918663;154;27866;-76
2022/04/18 02:40:09;;;;;;;1.40;1.30;;;7.10;48.30;;;;;;919158;152;27375;-76
2022/04/18 02:42:36;;;;;;;1.57;1.47;;;7.00;48.20;;;;;;920339;154;27952;-76
2022/04/18 02:45:02;;;;;;;1.47;1.37;;;7.00;48.30;;;;;;920510;152;27430;-76
2022/04/18 02:47:29;;;;;;;2.13;1.57;;;6.90;48.50;;;;;;919833;154;27415;-76
2022/04/18 02:49:55;;;;;;;1.80;1.47;;;6.90;48.70;;;;;;920496;152;27395;-76
2022/04/18 02:52:22;;;;;;;1.63;1.50;;;6.80;48.80;;;;;;917221;154;27766;-76
2022/04/18 02:54:49;;;;;;;1.67;1.57;;;6.80;49.00;;;;;;918830;154;27340;-76
2022/04/18 02:57:15;;;;;;;1.80;1.70;;;6.80;49.00;;;;;;919300;151;27363;-76
2022/04/18 02:59:42;;;;;;;2.03;1.83;;;6.70;49.20;;;;;;920009;151;27364;-76
2022/04/18 03:02:08;;;;;;;1.63;1.53;;;6.70;49.20;;;;;;917776;154;27378;-76
2022/04/18 03:04:35;;;;;;;1.70;1.60;;;6.60;49.30;;;;;;918441;152;27427;-76
2022/04/18 03:07:02;;;;;;;1.40;1.30;;;6.60;49.40;;;;;;917955;152;27309;-76
2022/04/18 03:09:28;;;;;;;2.33;1.87;;;6.60;49.50;;;;;;919722;154;27348;-76
2022/04/18 03:11:56;;;;;;;1.77;1.67;;;6.50;49.50;;;;;;917198;154;27401;-76
2022/04/18 03:14:21;;;;;;;1.50;1.40;;;6.50;49.80;;;;;;919329;153;27806;-76
2022/04/18 03:16:48;;;;;;;1.67;1.57;;;6.40;49.90;;;;;;918659;154;27379;-76
2022/04/18 03:19:14;;;;;;;1.60;1.47;;;6.40;50.00;;;;;;919072;152;27476;-76
2022/04/18 03:21:41;;;;;;;2.67;1.80;;;6.40;50.00;;;;;;932894;149;27340;-76
2022/04/18 03:24:08;;;;;;;2.47;1.63;;;6.40;50.20;;;;;;934159;148;27378;-74
2022/04/18 03:26:35;;;;;;;2.53;2.10;;;6.30;50.40;;;;;;934639;149;27360;-74
2022/04/18 03:29:01;;;;;;;1.80;1.70;;;6.30;50.40;;;;;;918996;152;27446;-73
2022/04/18 03:31:27;;;;;;;3.67;1.80;;;6.20;50.60;;;;;;917075;152;27413;-73
2022/04/18 03:33:54;;;;;;;2.07;1.40;;;6.20;50.60;;;;;;917722;154;27903;-73
2022/04/18 03:41:50;;;;;;;1.57;1.47;;;6.10;50.50;;;;;;919314;154;27466;-75
2022/04/18 03:44:17;;;;;;;1.53;1.43;;;6.00;50.60;;;;;;920445;152;27431;-75
2022/04/18 03:46:43;;;;;;;1.57;1.47;;;6.00;50.90;;;;;;919212;152;27898;-74
2022/04/18 03:49:09;;;;;;;1.47;1.30;;;6.00;51.00;;;;;;932511;152;27339;-75
2022/04/18 03:51:36;;;;;;;1.70;1.60;;;6.00;51.10;;;;;;919412;151;27499;-75
2022/04/18 03:54:02;;;;;;;1.50;1.40;;;6.00;51.30;;;;;;931459;152;27376;-75
2022/04/18 03:56:29;;;;;;;1.63;1.53;;;5.90;51.40;;;;;;931908;151;27664;-75
2022/04/18 03:58:56;;;;;;;1.87;1.77;;;5.90;51.50;;;;;;919387;151;27973;-75
2022/04/18 04:01:22;;;;;;;1.50;1.40;;;5.90;51.60;;;;;;934744;149;27376;-75
2022/04/18 04:03:49;;;;;;;1.40;1.30;;;5.80;51.50;;;;;;936408;152;27391;-75
2022/04/18 04:06:15;;;;;;;1.50;1.40;;;5.80;51.60;;;;;;932464;152;27380;-75
2022/04/18 04:08:42;;;;;;;2.30;1.37;;;5.80;51.50;;;;;;920069;151;27381;-75
2022/04/18 04:11:10;;;;;;;3.50;1.57;;;5.70;51.60;;;;;;917762;152;27341;-75
2022/04/18 04:13:35;;;;;;;1.43;1.33;;;5.70;51.70;;;;;;918673;154;27334;-75
2022/04/18 04:16:02;;;;;;;1.73;1.63;;;5.60;51.70;;;;;;933334;152;27417;-75
2022/04/18 04:18:28;;;;;;;1.43;1.33;;;5.60;51.90;;;;;;916820;154;27441;-75
2022/04/18 04:20:55;;;;;;;1.90;1.73;;;5.60;52.20;;;;;;918342;154;27403;-75
2022/04/18 04:23:21;;;;;;;1.67;1.57;;;5.50;52.40;;;;;;916984;154;27481;-75
2022/04/18 04:25:48;;;;;;;1.10;1.10;;;5.50;52.50;;;;;;918296;151;27411;-75
2022/04/18 04:28:15;;;;;;;1.70;1.60;;;5.50;52.50;;;;;;917972;152;27785;-75
2022/04/18 04:30:41;;;;;;;1.60;1.50;;;5.40;52.50;;;;;;920789;154;27370;-75
2022/04/18 04:33:08;;;;;;;1.40;1.30;;;5.40;52.60;;;;;;920903;154;27354;-75
2022/04/18 04:35:34;;;;;;;1.50;1.40;;;5.40;52.70;;;;;;919878;154;28692;-74
2022/04/18 04:38:01;;;;;;;1.80;1.70;;;5.40;52.80;;;;;;920133;154;27346;-75
2022/04/18 04:40:28;;;;;;;1.80;1.70;;;5.40;53.00;;;;;;919770;154;27356;-75
2022/04/18 04:42:54;;;;;;;1.67;1.57;;;5.40;53.10;;;;;;917899;154;27339;-74
2022/04/18 04:45:21;;;;;;;1.43;1.30;;;5.40;53.20;;;;;;919629;152;27524;-74
2022/04/18 04:47:47;;;;;;;1.67;1.57;;;5.40;53.30;;;;;;922351;152;27461;-74
2022/04/18 04:50:14;;;;;;;1.90;1.80;;;5.40;53.40;;;;;;922174;152;27342;-74
2022/04/18 04:52:40;;;;;;;1.83;1.73;;;5.50;53.60;;;;;;919136;154;28077;-74
2022/04/18 04:55:08;;;;;;;2.90;2.70;;;5.50;53.90;;;;;;922486;154;27348;-74
2022/04/18 04:57:34;;;;;;;3.07;1.83;;;5.70;54.40;;;;;;919884;154;27838;-74
2022/04/18 05:00:00;;;;;;;2.30;2.10;;;6.00;55.10;;;;;;918085;152;27393;-74
2022/04/18 05:02:27;;;;;;;2.50;1.70;;;6.30;55.30;;;;;;917676;154;27479;-74
2022/04/18 05:04:53;;;;;;;2.00;1.70;;;6.70;55.60;;;;;;916030;154;27292;-74
2022/04/18 05:07:20;;;;;;;1.53;1.43;;;7.20;55.90;;;;;;918784;154;27324;-74
2022/04/18 05:09:47;;;;;;;1.70;1.60;;;7.80;55.90;;;;;;917722;154;27399;-74
2022/04/18 05:12:13;;;;;;;1.80;1.70;;;8.40;55.80;;;;;;919468;154;27388;-74
2022/04/18 05:14:40;;;;;;;2.63;2.00;;;9.00;55.40;;;;;;918891;154;27383;-74
2022/04/18 05:17:06;;;;;;;1.80;1.70;;;9.70;55.00;;;;;;918392;154;27454;-74
2022/04/18 05:19:33;;;;;;;2.07;1.70;;;10.40;54.50;;;;;;918849;152;27432;-74
2022/04/18 05:21:59;;;;;;;1.80;1.57;;;11.10;53.90;;;;;;926640;151;27466;-74
2022/04/18 05:24:26;;;;;;;1.60;1.50;;;11.80;53.20;;;;;;918603;152;27424;-74
2022/04/18 05:26:53;;;;;;;2.13;1.43;;;12.50;52.60;;;;;;918450;154;27466;-74
2022/04/18 05:29:19;;;;;;;1.60;1.50;;;13.20;52.00;;;;;;920746;154;27408;-74
2022/04/18 05:31:46;;;;;;;2.03;1.40;;;13.90;51.30;;;;;;916882;154;27305;-74
2022/04/18 05:34:12;;;;;;;1.70;1.60;;;14.60;50.70;;;;;;917597;154;27330;-74
2022/04/18 05:36:39;;;;;;;1.87;1.70;;;15.20;50.00;;;;;;930860;151;27380;-74
2022/04/18 05:39:06;;;;;;;1.22;1.20;;;15.90;49.30;;;;;;930186;151;27465;-74
2022/04/18 05:41:32;;;;;;;5.70;1.40;;;16.60;48.70;;;;;;934314;149;27385;-74
2022/04/18 05:43:59;;;;;;;1.70;1.60;;;17.20;48.00;;;;;;916566;154;27505;-74
2022/04/18 05:46:26;;;;;;;1.20;1.17;;;17.90;47.30;;;;;;916653;154;27440;-74
2022/04/18 05:48:52;;;;;;;1.40;1.30;;;18.50;46.60;;;;;;916292;154;27411;-74
2022/04/18 05:51:19;;;;;;;1.82;1.50;;;19.20;45.80;;;;;;917100;155;27385;-75
2022/04/18 05:53:45;;;;;;;1.98;1.40;;;19.70;45.00;;;;;;920729;154;27404;-75
2022/04/18 05:56:12;;;;;;;1.50;1.40;;;20.30;44.30;;;;;;919187;152;27439;-75
2022/04/18 05:58:40;;;;;;;2.05;1.40;;;20.90;43.50;;;;;;933646;152;27436;-75
2022/04/18 06:01:06;;;;;;;1.82;1.40;;;21.40;43.00;;;;;;922934;151;27459;-75
2022/04/18 06:03:31;;;;;;;1.80;1.70;;;21.90;42.40;;;;;;918045;152;27389;-75
2022/04/18 06:05:58;;;;;;;1.80;1.57;;;22.40;41.70;;;;;;918669;154;27365;-75
2022/04/18 06:08:25;;;;;;;1.40;1.30;;;23.00;41.10;;;;;;919003;151;28895;-75
2022/04/18 06:10:52;;;;;;;1.12;1.12;;;23.40;40.40;;;;;;935247;149;27344;-75
2022/04/18 06:13:18;;;;;;;1.62;1.50;;;24.00;40.00;;;;;;927695;154;27721;-75
2022/04/18 06:15:47;;;;;;;1.60;1.50;;;24.50;39.30;;;;;;917974;152;27385;-75
2022/04/18 06:18:11;;;;;;;1.87;1.25;;;25.00;38.60;;;;;;918727;154;27437;-75
2022/04/18 06:20:38;;;;;;;1.85;1.37;;;25.50;38.20;;;;;;918672;154;27969;-75
2022/04/18 06:23:04;;;;;;;1.27;1.17;;;25.90;37.40;;;;;;919777;154;27434;-75
2022/04/18 06:25:31;;;;;;;1.30;1.20;;;26.40;37.00;;;;;;920881;152;27371;-75
2022/04/18 06:27:57;;;;;;;2.50;1.45;;;26.90;36.60;;;;;;919854;154;27374;-75
2022/04/18 06:30:24;;;;;;;1.62;1.50;;;27.30;36.10;;;;;;922117;154;27344;-76
2022/04/18 06:32:51;;;;;;;2.47;1.50;;;27.80;35.70;;;;;;919885;152;27485;-75
2022/04/18 06:35:17;;;;;;;1.40;1.30;;;28.20;35.00;;;;;;919912;151;27359;-75
2022/04/18 06:37:44;;;;;;;1.50;1.40;;;28.60;34.40;;;;;;927585;152;27327;-75
2022/04/18 06:40:10;;;;;;;1.50;1.30;;;29.00;34.00;;;;;;918016;152;27391;-75
2022/04/18 06:42:37;;;;;;;1.47;1.37;;;29.40;33.60;;;;;;932912;151;27769;-75
2022/04/18 06:45:03;;;;;;;2.05;1.87;;;29.70;33.20;;;;;;927736;151;27376;-75
2022/04/18 06:47:30;;;;;;;2.20;1.60;;;30.10;32.80;;;;;;928422;151;27371;-76
2022/04/18 06:49:57;;;;;;;1.50;1.40;;;30.40;32.30;;;;;;927666;153;27319;-76
2022/04/18 06:52:23;;;;;;;1.25;1.22;;;30.80;31.90;;;;;;925908;152;27348;-76
2022/04/18 06:54:50;;;;;;;1.40;1.30;;;31.10;31.60;;;;;;935813;151;27433;-76
2022/04/18 06:57:16;;;;;;;1.55;1.42;;;31.40;31.20;;;;;;933434;152;27444;-76
2022/04/18 06:59:45;;;;;;;1.30;1.20;;;31.70;30.80;;;;;;935137;152;27474;-76
2022/04/18 07:02:10;;;;;;;1.72;1.50;;;32.00;30.50;;;;;;935366;152;27453;-76
2022/04/18 07:04:36;;;;;;;1.45;1.35;;;32.30;30.10;;;;;;936151;151;27501;-76
2022/04/18 07:07:05;;;;;;;1.67;1.57;;;32.70;29.80;;;;;;934033;151;27445;-76
2022/04/18 07:09:29;;;;;;;1.45;1.20;;;32.90;29.40;;;;;;933186;151;27343;-76
2022/04/18 07:11:56;;;;;;;1.50;1.40;;;33.20;29.60;;;;;;933006;152;27370;-76
2022/04/18 07:14:23;;;;;;;1.45;1.30;;;33.40;29.00;;;;;;935576;152;27398;-76
2022/04/18 07:16:49;;;;;;;1.45;1.35;;;33.60;28.60;;;;;;934853;151;27338;-76
2022/04/18 07:19:16;;;;;;;3.00;1.75;;;33.70;28.30;;;;;;935163;152;27356;-76
2022/04/18 07:21:42;;;;;;;2.40;1.55;;;33.80;28.10;;;;;;933693;152;27435;-76
2022/04/18 07:24:09;;;;;;;1.40;1.30;;;33.90;28.00;;;;;;933997;151;27755;-76
2022/04/18 07:26:36;;;;;;;1.32;1.25;;;34.10;27.70;;;;;;935163;149;28278;-76
2022/04/18 07:29:02;;;;;;;1.80;1.67;;;34.10;27.50;;;;;;933001;149;27408;-76
2022/04/18 07:31:29;;;;;;;3.77;1.62;;;34.30;27.30;;;;;;933703;149;27445;-76
2022/04/18 07:33:55;;;;;;;1.20;1.20;;;34.40;27.10;;;;;;933461;149;27268;-77
2022/04/18 07:36:22;;;;;;;1.92;1.80;;;34.50;26.90;;;;;;933948;149;27389;-76
2022/04/18 07:38:51;;;;;;;1.35;1.25;;;34.60;27.30;;;;;;932314;149;27375;-76
2022/04/18 07:41:18;;;;;;;1.62;1.52;;;34.80;26.70;;;;;;932396;149;27907;-76
2022/04/18 07:43:44;;;;;;;1.47;1.37;;;35.00;26.50;;;;;;932245;149;27410;-76
2022/04/18 07:46:11;;;;;;;1.40;1.30;;;35.10;26.40;;;;;;934579;149;27472;-76
2022/04/18 07:48:37;;;;;;;1.72;1.37;;;35.30;26.50;;;;;;935125;149;27354;-76
2022/04/18 07:53:49;;;;;;;1.40;1.30;;;35.50;25.80;;;;;;932906;149;26359;-76
2022/04/18 07:56:15;;;;;;;1.90;1.42;;;35.70;25.80;;;;;;931508;149;27336;-76
2022/04/18 07:58:42;;;;;;;1.55;1.32;;;35.80;25.60;;;;;;931547;149;26249;-75
2022/04/18 08:01:08;;;;;;;1.52;1.05;;;36.00;25.50;;;;;;933102;149;26375;-74
2022/04/18 08:03:38;;;;;;;1.30;1.20;;;36.20;25.30;;;;;;933036;149;27869;-74
2022/04/18 08:06:04;;;;;;;1.70;1.50;;;36.40;25.30;;;;;;930375;149;26351;-74
2022/04/18 08:08:31;;;;;;;1.50;1.30;;;36.60;25.00;;;;;;933811;149;26281;-74
2022/04/18 08:10:57;;;;;;;1.57;1.42;;;36.70;24.80;;;;;;931736;149;26246;-74
2022/04/18 08:13:24;;;;;;;1.40;1.30;;;36.80;24.60;;;;;;932188;149;26289;-74
2022/04/18 08:15:51;;;;;;;1.50;1.40;;;36.80;24.30;;;;;;931334;149;27401;-74
2022/04/18 08:18:17;;;;;;;1.30;1.20;;;36.80;24.20;;;;;;932378;149;27891;-74
2022/04/18 08:20:44;;;;;;;1.65;1.40;;;36.90;24.30;;;;;;933131;149;26365;-74
2022/04/18 08:23:10;;;;;;;1.20;1.10;;;37.00;24.20;;;;;;933063;149;26374;-74
2022/04/18 08:25:37;;;;;;;1.60;1.50;;;37.00;23.80;;;;;;933221;149;26273;-74
2022/04/18 08:28:04;;;;;;;1.35;1.27;;;37.10;23.80;;;;;;933409;149;26403;-74
2022/04/18 08:30:30;;;;;;;1.62;1.52;;;37.10;23.80;;;;;;933520;152;26260;-74
2022/04/18 08:32:57;;;;;;;1.60;1.50;;;37.20;23.70;;;;;;934577;152;26272;-74
2022/04/18 08:35:23;;;;;;;1.55;1.40;;;37.30;23.40;;;;;;933498;151;26331;-74
2022/04/18 08:37:50;;;;;;;1.72;1.55;;;37.30;23.40;;;;;;933204;152;26187;-74
2022/04/18 08:40:17;;;;;;;1.20;1.10;;;37.40;23.40;;;;;;932811;152;26281;-74
2022/04/18 08:42:43;;;;;;;1.67;1.57;;;37.50;23.30;;;;;;935554;151;27901;-74
2022/04/18 08:45:10;;;;;;;1.27;1.22;;;37.50;23.00;;;;;;933747;152;26324;-74
2022/04/18 08:53:09;;;;;;;1.52;1.42;;;37.60;22.90;;;;;;932834;152;26364;-73
2022/04/18 08:55:35;;;;;;;1.40;1.25;;;37.60;22.60;;;;;;933976;152;26398;-73
2022/04/18 08:58:02;;;;;;;1.60;1.50;;;37.60;22.50;;;;;;933874;152;28577;-74
2022/04/18 09:00:29;;;;;;;1.90;1.80;;;37.70;22.60;;;;;;934343;152;26350;-73
2022/04/18 09:02:55;;;;;;;1.40;1.30;;;37.70;22.00;;;;;;934143;152;28058;-73
2022/04/18 09:05:22;;;;;;;1.95;1.47;;;37.60;21.90;;;;;;935441;152;26274;-74
2022/04/18 09:08:01;;;;;;;1.87;1.50;;;37.50;21.60;;;;;;932389;152;26394;-73
2022/04/18 09:10:27;;;;;;;2.45;1.35;;;37.30;21.50;;;;;;933811;152;26311;-73
2022/04/18 09:12:54;;;;;;;1.50;1.40;;;37.00;21.70;;;;;;933631;151;26375;-73
2022/04/18 09:15:30;;;;;;;2.08;1.35;;;36.80;21.60;;;;;;935810;152;26258;-74
2022/04/18 09:17:56;;;;;;;1.65;1.40;;;36.60;21.50;;;;;;932121;152;26284;-74
2022/04/18 09:20:23;;;;;;;1.57;1.47;;;36.40;21.30;;;;;;934850;152;26246;-74
2022/04/18 09:22:49;;;;;;;1.10;1.10;;;36.20;21.70;;;;;;934430;152;26398;-73
2022/04/18 09:25:16;;;;;;;1.47;1.22;;;36.10;21.70;;;;;;933844;151;27445;-73
2022/04/18 09:27:54;;;;;;;1.57;1.10;;;36.00;21.40;;;;;;933221;152;26251;-73
2022/04/18 09:30:21;;;;;;;1.52;1.42;;;35.90;21.30;;;;;;934556;152;26253;-73
2022/04/18 09:32:57;;;;;;;1.12;1.02;;;35.70;21.20;;;;;;934516;152;26281;-73
2022/04/18 09:35:26;;;;;;;2.08;1.50;;;35.40;21.10;;;;;;934471;152;26309;-74
2022/04/18 09:37:55;;;;;;;1.10;1.10;;;35.10;20.80;;;;;;935035;152;27360;-74
2022/04/18 09:40:22;;;;;;;1.20;1.10;;;34.70;20.90;;;;;;935619;152;27417;-73
2022/04/18 09:42:49;;;;;;;1.45;1.12;;;34.40;20.90;;;;;;934322;152;27473;-74
2022/04/18 09:45:15;;;;;;;1.37;1.27;;;33.90;21.00;;;;;;933635;152;27310;-74
2022/04/18 09:47:43;;;;;;;1.45;1.15;;;33.60;21.10;;;;;;933955;152;27497;-74
2022/04/18 09:53:05;;;;;;;1.80;1.50;;;32.80;21.00;;;;;;933069;152;27413;-75
2022/04/18 09:55:32;;;;;;;1.57;1.27;;;32.20;21.20;;;;;;935217;152;27647;-75
2022/04/18 09:58:01;;;;;;;1.65;1.10;;;31.60;21.20;;;;;;934623;152;27491;-74
2022/04/18 10:00:28;;;;;;;1.37;1.27;;;31.10;21.40;;;;;;932749;152;27385;-75
2022/04/18 10:02:54;;;;;;;1.60;1.50;;;30.60;21.40;;;;;;933774;152;27493;-75
2022/04/18 10:05:21;;;;;;;1.95;1.32;;;30.10;21.60;;;;;;934523;152;28540;-75
2022/04/18 10:07:48;;;;;;;1.20;1.00;;;29.60;21.70;;;;;;934908;151;27374;-75
2022/04/18 10:10:14;;;;;;;1.40;1.30;;;29.10;21.90;;;;;;933644;151;27454;-74
2022/04/18 10:12:41;;;;;;;1.57;1.47;;;28.60;22.00;;;;;;933954;151;27343;-75
2022/04/18 10:15:08;;;;;;;1.92;1.12;;;28.20;22.10;;;;;;936183;151;27465;-74
2022/04/18 10:17:34;;;;;;;1.30;1.20;;;27.80;22.20;;;;;;933419;152;27467;-74
2022/04/18 10:20:06;;;;;;;1.20;1.10;;;27.40;22.40;;;;;;934508;152;28586;-74
2022/04/18 10:22:51;;;;;;;1.35;1.17;;;27.10;22.40;;;;;;935686;152;27719;-74
2022/04/18 10:25:24;;;;;;;1.30;1.20;;;26.80;22.60;;;;;;933916;151;27323;-75
2022/04/18 10:27:56;;;;;;;1.55;1.45;;;26.50;22.80;;;;;;933665;152;28257;-75
2022/04/18 10:30:22;;;;;;;1.47;1.37;;;26.20;22.90;;;;;;931736;152;27443;-75
2022/04/18 10:32:49;;;;;;;1.50;1.40;;;25.90;22.90;;;;;;935955;152;27346;-75
2022/04/18 10:35:16;;;;;;;1.40;1.27;;;25.70;23.00;;;;;;933403;151;27325;-75
2022/04/18 10:37:42;;;;;;;1.50;1.35;;;25.40;23.00;;;;;;933431;152;27388;-75
2022/04/18 10:40:09;;;;;;;1.60;1.50;;;25.20;23.20;;;;;;933618;151;27384;-75
2022/04/18 10:42:40;;;;;;;1.32;1.22;;;25.00;23.30;;;;;;933244;152;27419;-75
2022/04/18 10:45:14;;;;;;;2.08;1.90;;;24.80;23.40;;;;;;933319;152;27313;-75
2022/04/18 10:47:56;;;;;;;1.45;1.20;;;24.60;23.40;;;;;;932717;152;27399;-75
2022/04/18 10:50:29;;;;;;;1.37;1.27;;;24.30;23.70;;;;;;934502;152;27313;-75
2022/04/18 10:53:10;;;;;;;1.67;1.52;;;24.00;23.70;;;;;;936753;152;27319;-74
2022/04/18 10:55:34;;;;;;;1.52;1.40;;;23.70;23.80;;;;;;925064;152;27403;-75
2022/04/18 10:58:15;;;;;;;1.30;1.20;;;23.40;24.00;;;;;;934264;152;27377;-74
2022/04/18 11:00:51;;;;;;;1.25;1.15;;;23.10;24.20;;;;;;931477;151;27369;-75
2022/04/18 11:03:36;;;;;;;0.80;0.80;;;22.80;24.40;;;;;;933283;152;27383;-75
2022/04/18 11:06:02;;;;;;;1.55;1.45;;;22.60;24.80;;;;;;931774;152;27359;-74
2022/04/18 11:08:32;;;;;;;0.98;0.90;;;22.50;25.00;;;;;;934628;151;27356;-75
2022/04/18 11:11:02;;;;;;;1.30;1.15;;;22.40;25.10;;;;;;933256;152;27403;-75
2022/04/18 11:13:28;;;;;;;3.52;1.02;;;22.30;25.20;;;;;;931506;152;27489;-74
2022/04/18 11:15:55;;;;;;;1.20;1.10;;;22.20;25.30;;;;;;934099;151;27434;-75
2022/04/18 11:18:28;;;;;;;1.17;1.07;;;22.10;25.40;;;;;;932437;152;27393;-75
2022/04/18 11:20:54;;;;;;;1.20;1.10;;;22.10;25.60;;;;;;933152;152;27761;-75
2022/04/18 11:23:27;;;;;;;1.07;0.98;;;22.10;25.60;;;;;;933913;152;27918;-75
2022/04/18 11:25:53;;;;;;;1.22;0.80;;;22.00;25.80;;;;;;934778;152;27356;-75
2022/04/18 11:28:19;;;;;;;1.10;1.00;;;21.90;25.60;;;;;;933043;152;27326;-75
2022/04/18 11:30:46;;;;;;;1.12;1.02;;;21.90;25.70;;;;;;933847;149;27405;-74
2022/04/18 11:33:12;;;;;;;0.88;0.88;;;21.80;25.70;;;;;;933071;149;27352;-74
2022/04/18 11:35:39;;;;;;;1.40;1.02;;;21.70;25.80;;;;;;931486;149;27467;-74
2022/04/18 11:38:08;;;;;;;1.10;1.00;;;21.60;25.90;;;;;;930780;149;27358;-74
2022/04/18 11:40:38;;;;;;;0.93;0.93;;;21.50;26.00;;;;;;931886;149;28056;-74
2022/04/18 11:43:11;;;;;;;1.10;1.00;;;21.50;26.20;;;;;;930623;149;27363;-74
2022/04/18 11:45:37;;;;;;;1.10;1.00;;;21.40;26.30;;;;;;932273;149;27442;-74
2022/04/18 11:48:04;;;;;;;2.12;1.20;;;21.40;26.40;;;;;;931711;149;28320;-74
2022/04/18 11:50:30;;;;;;;2.67;0.88;;;21.40;26.50;;;;;;931305;149;27388;-74
2022/04/18 11:53:06;;;;;;;0.80;0.80;;;21.40;26.50;;;;;;933103;149;27390;-74
2022/04/18 11:55:32;;;;;;;1.67;1.20;;;21.40;26.70;;;;;;923156;150;27423;-74
2022/04/18 11:57:58;;;;;;;1.45;0.88;;;21.30;26.70;;;;;;927387;150;27947;-74
2022/04/18 12:08:39;;;;;;;1.22;1.02;;;21.30;26.90;;;;;;927917;150;27413;-74
2022/04/18 12:11:06;;;;;;;1.35;0.90;;;21.30;26.80;;;;;;928617;150;27345;-75
2022/04/18 12:13:33;;;;;;;0.70;0.70;;;21.30;26.80;;;;;;919831;150;27756;-74
2022/04/18 12:15:59;;;;;;;1.00;1.00;;;21.30;26.80;;;;;;934151;148;27346;-74
2022/04/18 12:18:26;;;;;;;0.93;0.78;;;21.20;26.80;;;;;;917201;150;27365;-75
2022/04/18 12:20:52;;;;;;;2.33;1.07;;;21.20;26.90;;;;;;932726;149;27329;-74
2022/04/18 12:23:22;;;;;;;2.20;1.10;;;21.10;27.00;;;;;;930460;149;27338;-74
2022/04/18 12:25:48;;;;;;;1.17;0.90;;;21.10;27.20;;;;;;932867;149;28002;-74
2022/04/18 12:28:15;;;;;;;1.02;1.02;;;21.00;27.20;;;;;;928926;149;27372;-74
2022/04/18 12:30:41;;;;;;;1.32;1.22;;;21.00;27.30;;;;;;933994;149;27405;-75
2022/04/18 12:33:11;;;;;;;2.00;1.20;;;20.90;27.30;;;;;;931219;149;27426;-74
2022/04/18 12:35:41;;;;;;;0.80;0.80;;;20.90;27.20;;;;;;930164;149;27441;-74
2022/04/18 12:38:07;;;;;;;1.42;0.98;;;20.80;27.10;;;;;;932865;149;27339;-74
2022/04/18 12:40:34;;;;;;;1.52;1.00;;;20.80;27.20;;;;;;932241;149;27391;-74
2022/04/18 12:43:00;;;;;;;1.20;1.10;;;20.70;27.20;;;;;;932986;149;27465;-74
2022/04/18 12:45:27;;;;;;;0.82;0.80;;;20.70;27.40;;;;;;931510;149;27326;-75
2022/04/18 12:47:54;;;;;;;1.42;0.80;;;20.70;27.40;;;;;;931833;149;27308;-74
2022/04/18 12:50:20;;;;;;;0.90;0.90;;;20.80;27.50;;;;;;932505;149;27357;-74
2022/04/18 12:52:47;;;;;;;1.30;0.70;;;20.80;27.50;;;;;;930562;149;27688;-74
2022/04/18 12:55:13;;;;;;;0.78;0.68;;;20.90;27.50;;;;;;929577;149;27361;-74
2022/04/18 12:57:40;;;;;;;1.32;1.00;;;20.90;27.50;;;;;;933543;149;27316;-74
2022/04/18 13:00:14;;;;;;;0.93;0.93;;;20.90;27.90;;;;;;931126;149;28066;-74
2022/04/18 13:02:39;;;;;;;0.88;0.88;;;20.90;27.40;;;;;;931431;149;27499;-74
2022/04/18 13:05:06;;;;;;;1.17;1.07;;;20.90;27.50;;;;;;929501;149;27485;-74
2022/04/18 13:07:32;;;;;;;0.72;0.72;;;20.90;27.40;;;;;;930910;149;27339;-74
2022/04/18 13:10:02;;;;;;;1.40;1.30;;;20.90;27.40;;;;;;929539;149;27324;-74
2022/04/18 13:12:31;;;;;;;0.95;0.82;;;20.80;27.40;;;;;;931682;149;27362;-75
2022/04/18 13:15:05;;;;;;;0.90;0.88;;;20.80;27.40;;;;;;930789;149;27796;-74
2022/04/18 13:17:33;;;;;;;0.60;0.60;;;20.80;27.50;;;;;;931346;149;27776;-75